sensor_id;sensor_type;location;lat;lon;timestamp;temperature;humidity
33815;DHT22;20121;51.910;8.406;2023-05-07T00:02:06;14.40;99.90
33815;DHT22;20121;51.910;8.406;2023-05-07T00:04:32;14.50;99.90
33815;DHT22;20121;51.910;8.406;2023-05-07T00:07:02;14.50;99.90
33815;DHT22;20121;51.910;8.406;2023-05-07T00:09:28;14.50;99.90
33815;DHT22;20121;51.910;8.406;2023-05-07T00:11:53;14.50;99.90
33815;DHT22;20121;51.910;8.406;2023-05-07T00:14:19;14.30;99.90
33815;DHT22;20121;51.910;8.406;2023-05-07T00:16:46;14.40;99.90
33815;DHT22;20121;51.910;8.406;2023-05-07T00:19:11;14.40;99.90
33815;DHT22;20121;51.910;8.406;2023-05-07T00:21:37;14.40;99.90
33815;DHT22;20121;51.910;8.406;2023-05-07T00:24:03;14.40;99.90
33815;DHT22;20121;51.910;8.406;2023-05-07T00:26:29;14.40;99.90
33815;DHT22;20121;51.910;8.406;2023-05-07T00:28:54;14.40;99.90
33815;DHT22;20121;51.910;8.406;2023-05-07T00:31:20;14.30;99.90
33815;DHT22;20121;51.910;8.406;2023-05-07T00:33:46;14.40;99.90
33815;DHT22;20121;51.910;8.406;2023-05-07T00:36:12;14.40;99.90
33815;DHT22;20121;51.910;8.406;2023-05-07T00:38:37;14.30;99.90
33815;DHT22;20121;51.910;8.406;2023-05-07T00:41:03;14.30;99.90
33815;DHT22;20121;51.910;8.406;2023-05-07T00:43:29;14.30;99.90
33815;DHT22;20121;51.910;8.406;2023-05-07T00:45:55;14.00;99.90
33815;DHT22;20121;51.910;8.406;2023-05-07T00:48:21;13.90;99.90
33815;DHT22;20121;51.910;8.406;2023-05-07T00:50:47;14.10;99.90
33815;DHT22;20121;51.910;8.406;2023-05-07T00:53:13;14.30;99.90
33815;DHT22;20121;51.910;8.406;2023-05-07T00:55:39;14.20;99.90
33815;DHT22;20121;51.910;8.406;2023-05-07T00:58:06;14.20;99.90
33815;DHT22;20121;51.910;8.406;2023-05-07T01:00:31;14.30;99.90
33815;DHT22;20121;51.910;8.406;2023-05-07T01:02:58;14.30;99.90
33815;DHT22;20121;51.910;8.406;2023-05-07T01:05:23;14.20;99.90
33815;DHT22;20121;51.910;8.406;2023-05-07T01:07:51;14.20;99.90
33815;DHT22;20121;51.910;8.406;2023-05-07T01:10:17;14.20;99.90
33815;DHT22;20121;51.910;8.406;2023-05-07T01:12:44;14.10;99.90
33815;DHT22;20121;51.910;8.406;2023-05-07T01:15:11;14.20;99.90
33815;DHT22;20121;51.910;8.406;2023-05-07T01:17:39;14.20;99.90
33815;DHT22;20121;51.910;8.406;2023-05-07T01:20:07;14.30;99.90
33815;DHT22;20121;51.910;8.406;2023-05-07T01:22:33;14.10;99.90
33815;DHT22;20121;51.910;8.406;2023-05-07T01:25:00;13.90;99.90
33815;DHT22;20121;51.910;8.406;2023-05-07T01:27:27;14.10;99.90
33815;DHT22;20121;51.910;8.406;2023-05-07T01:29:52;14.10;99.90
33815;DHT22;20121;51.910;8.406;2023-05-07T01:32:23;14.10;99.90
33815;DHT22;20121;51.910;8.406;2023-05-07T01:34:50;14.00;99.90
33815;DHT22;20121;51.910;8.406;2023-05-07T01:37:18;14.10;99.90
33815;DHT22;20121;51.910;8.406;2023-05-07T01:39:44;14.00;99.90
33815;DHT22;20121;51.910;8.406;2023-05-07T01:42:09;14.20;99.90
33815;DHT22;20121;51.910;8.406;2023-05-07T01:44:35;14.00;99.90
33815;DHT22;20121;51.910;8.406;2023-05-07T01:47:02;14.00;99.90
33815;DHT22;20121;51.910;8.406;2023-05-07T01:49:28;14.00;99.90
33815;DHT22;20121;51.910;8.406;2023-05-07T01:51:53;14.30;99.90
33815;DHT22;20121;51.910;8.406;2023-05-07T01:54:19;14.00;99.90
33815;DHT22;20121;51.910;8.406;2023-05-07T01:56:46;13.90;99.90
33815;DHT22;20121;51.910;8.406;2023-05-07T01:59:13;13.80;99.90
33815;DHT22;20121;51.910;8.406;2023-05-07T02:01:38;13.90;99.90
33815;DHT22;20121;51.910;8.406;2023-05-07T02:04:04;13.50;99.90
33815;DHT22;20121;51.910;8.406;2023-05-07T02:06:30;13.80;99.90
33815;DHT22;20121;51.910;8.406;2023-05-07T02:08:56;13.80;99.90
33815;DHT22;20121;51.910;8.406;2023-05-07T02:11:22;13.80;99.90
33815;DHT22;20121;51.910;8.406;2023-05-07T02:13:47;13.80;99.90
33815;DHT22;20121;51.910;8.406;2023-05-07T02:16:13;13.70;99.90
33815;DHT22;20121;51.910;8.406;2023-05-07T02:18:39;13.70;99.90
33815;DHT22;20121;51.910;8.406;2023-05-07T02:21:05;13.80;99.90
33815;DHT22;20121;51.910;8.406;2023-05-07T02:23:31;13.50;99.90
33815;DHT22;20121;51.910;8.406;2023-05-07T02:25:56;13.50;99.90
33815;DHT22;20121;51.910;8.406;2023-05-07T02:28:22;13.60;99.90
33815;DHT22;20121;51.910;8.406;2023-05-07T02:30:47;13.80;99.90
33815;DHT22;20121;51.910;8.406;2023-05-07T02:33:13;13.30;99.90
33815;DHT22;20121;51.910;8.406;2023-05-07T02:35:39;13.70;99.90
33815;DHT22;20121;51.910;8.406;2023-05-07T02:38:04;13.70;99.90
33815;DHT22;20121;51.910;8.406;2023-05-07T02:40:30;13.40;99.90
33815;DHT22;20121;51.910;8.406;2023-05-07T02:42:59;13.20;99.90
33815;DHT22;20121;51.910;8.406;2023-05-07T02:45:25;13.30;99.90
33815;DHT22;20121;51.910;8.406;2023-05-07T02:47:50;13.20;99.90
33815;DHT22;20121;51.910;8.406;2023-05-07T02:50:16;13.60;99.90
33815;DHT22;20121;51.910;8.406;2023-05-07T02:52:42;13.40;99.90
33815;DHT22;20121;51.910;8.406;2023-05-07T02:55:08;13.20;99.90
33815;DHT22;20121;51.910;8.406;2023-05-07T02:57:33;14.20;99.90
33815;DHT22;20121;51.910;8.406;2023-05-07T02:59:59;13.20;99.90
33815;DHT22;20121;51.910;8.406;2023-05-07T03:02:25;13.20;99.90
33815;DHT22;20121;51.910;8.406;2023-05-07T03:04:50;13.00;99.90
33815;DHT22;20121;51.910;8.406;2023-05-07T03:07:16;13.70;99.90
33815;DHT22;20121;51.910;8.406;2023-05-07T03:09:41;13.50;99.90
33815;DHT22;20121;51.910;8.406;2023-05-07T03:12:07;13.10;99.90
33815;DHT22;20121;51.910;8.406;2023-05-07T03:14:32;13.10;99.90
33815;DHT22;20121;51.910;8.406;2023-05-07T03:16:58;13.10;99.90
33815;DHT22;20121;51.910;8.406;2023-05-07T03:19:24;13.10;99.90
33815;DHT22;20121;51.910;8.406;2023-05-07T03:21:49;13.10;99.90
33815;DHT22;20121;51.910;8.406;2023-05-07T03:24:15;13.30;99.90
33815;DHT22;20121;51.910;8.406;2023-05-07T03:26:40;13.00;99.90
33815;DHT22;20121;51.910;8.406;2023-05-07T03:29:06;13.10;99.90
33815;DHT22;20121;51.910;8.406;2023-05-07T03:31:32;13.00;99.90
33815;DHT22;20121;51.910;8.406;2023-05-07T03:33:57;13.00;99.90
33815;DHT22;20121;51.910;8.406;2023-05-07T03:36:23;13.00;99.90
33815;DHT22;20121;51.910;8.406;2023-05-07T03:38:50;13.00;99.90
33815;DHT22;20121;51.910;8.406;2023-05-07T03:41:15;13.00;99.90
33815;DHT22;20121;51.910;8.406;2023-05-07T03:43:41;12.90;99.90
33815;DHT22;20121;51.910;8.406;2023-05-07T03:46:07;12.90;99.90
33815;DHT22;20121;51.910;8.406;2023-05-07T03:48:33;12.90;99.90
33815;DHT22;20121;51.910;8.406;2023-05-07T03:50:59;12.90;99.90
33815;DHT22;20121;51.910;8.406;2023-05-07T03:53:24;12.90;99.90
33815;DHT22;20121;51.910;8.406;2023-05-07T03:55:50;12.90;99.90
33815;DHT22;20121;51.910;8.406;2023-05-07T03:58:16;12.80;99.90
33815;DHT22;20121;51.910;8.406;2023-05-07T04:00:42;12.90;99.90
33815;DHT22;20121;51.910;8.406;2023-05-07T04:03:07;12.90;99.90
33815;DHT22;20121;51.910;8.406;2023-05-07T04:05:33;12.90;99.90
33815;DHT22;20121;51.910;8.406;2023-05-07T04:07:59;12.80;99.90
33815;DHT22;20121;51.910;8.406;2023-05-07T04:10:25;12.90;99.90
33815;DHT22;20121;51.910;8.406;2023-05-07T04:12:51;12.80;99.90
33815;DHT22;20121;51.910;8.406;2023-05-07T04:15:17;12.80;99.90
33815;DHT22;20121;51.910;8.406;2023-05-07T04:17:43;12.90;99.90
33815;DHT22;20121;51.910;8.406;2023-05-07T04:20:15;12.80;99.90
33815;DHT22;20121;51.910;8.406;2023-05-07T04:22:42;12.80;99.90
33815;DHT22;20121;51.910;8.406;2023-05-07T04:25:08;12.80;99.90
33815;DHT22;20121;51.910;8.406;2023-05-07T04:27:37;12.80;99.90
33815;DHT22;20121;51.910;8.406;2023-05-07T04:30:03;12.80;99.90
33815;DHT22;20121;51.910;8.406;2023-05-07T04:32:29;12.80;99.90
33815;DHT22;20121;51.910;8.406;2023-05-07T04:34:56;12.80;99.90
33815;DHT22;20121;51.910;8.406;2023-05-07T04:37:22;12.80;99.90
33815;DHT22;20121;51.910;8.406;2023-05-07T04:39:48;12.80;99.90
33815;DHT22;20121;51.910;8.406;2023-05-07T04:42:17;12.80;99.90
33815;DHT22;20121;51.910;8.406;2023-05-07T04:44:44;12.80;99.90
33815;DHT22;20121;51.910;8.406;2023-05-07T04:47:10;12.80;99.90
33815;DHT22;20121;51.910;8.406;2023-05-07T04:49:37;12.80;99.90
33815;DHT22;20121;51.910;8.406;2023-05-07T04:52:03;12.80;99.90
33815;DHT22;20121;51.910;8.406;2023-05-07T04:54:29;12.80;99.90
33815;DHT22;20121;51.910;8.406;2023-05-07T04:56:55;12.80;99.90
33815;DHT22;20121;51.910;8.406;2023-05-07T04:59:21;12.80;99.90
33815;DHT22;20121;51.910;8.406;2023-05-07T05:01:46;12.80;99.90
33815;DHT22;20121;51.910;8.406;2023-05-07T05:04:12;12.60;99.90
33815;DHT22;20121;51.910;8.406;2023-05-07T05:06:38;12.80;99.90
33815;DHT22;20121;51.910;8.406;2023-05-07T05:09:04;12.80;99.90
33815;DHT22;20121;51.910;8.406;2023-05-07T05:11:30;12.90;99.90
33815;DHT22;20121;51.910;8.406;2023-05-07T05:13:56;12.90;99.90
33815;DHT22;20121;51.910;8.406;2023-05-07T05:16:22;13.00;99.90
33815;DHT22;20121;51.910;8.406;2023-05-07T05:18:48;13.00;99.90
33815;DHT22;20121;51.910;8.406;2023-05-07T05:21:14;13.10;99.90
33815;DHT22;20121;51.910;8.406;2023-05-07T05:23:39;13.10;99.90
33815;DHT22;20121;51.910;8.406;2023-05-07T05:26:05;13.20;99.90
33815;DHT22;20121;51.910;8.406;2023-05-07T05:28:30;13.20;99.90
33815;DHT22;20121;51.910;8.406;2023-05-07T05:30:56;13.20;99.90
33815;DHT22;20121;51.910;8.406;2023-05-07T05:33:22;13.20;99.90
33815;DHT22;20121;51.910;8.406;2023-05-07T05:35:49;13.20;99.90
33815;DHT22;20121;51.910;8.406;2023-05-07T05:38:15;13.30;99.90
33815;DHT22;20121;51.910;8.406;2023-05-07T05:40:40;13.30;99.90
33815;DHT22;20121;51.910;8.406;2023-05-07T05:43:06;13.30;99.90
33815;DHT22;20121;51.910;8.406;2023-05-07T05:45:31;13.30;99.90
33815;DHT22;20121;51.910;8.406;2023-05-07T05:47:57;13.40;99.90
33815;DHT22;20121;51.910;8.406;2023-05-07T05:50:23;13.40;99.90
33815;DHT22;20121;51.910;8.406;2023-05-07T05:52:48;13.40;99.90
33815;DHT22;20121;51.910;8.406;2023-05-07T05:55:14;13.50;99.90
33815;DHT22;20121;51.910;8.406;2023-05-07T05:57:40;13.50;99.90
33815;DHT22;20121;51.910;8.406;2023-05-07T06:00:06;13.60;99.90
33815;DHT22;20121;51.910;8.406;2023-05-07T06:02:33;13.60;99.90
33815;DHT22;20121;51.910;8.406;2023-05-07T06:04:58;13.60;99.90
33815;DHT22;20121;51.910;8.406;2023-05-07T06:07:24;13.60;99.90
33815;DHT22;20121;51.910;8.406;2023-05-07T06:09:50;13.70;99.90
33815;DHT22;20121;51.910;8.406;2023-05-07T06:12:16;13.70;99.90
33815;DHT22;20121;51.910;8.406;2023-05-07T06:14:43;13.70;99.90
33815;DHT22;20121;51.910;8.406;2023-05-07T06:17:09;13.70;99.90
33815;DHT22;20121;51.910;8.406;2023-05-07T06:19:34;13.70;99.90
33815;DHT22;20121;51.910;8.406;2023-05-07T06:22:00;13.70;99.90
33815;DHT22;20121;51.910;8.406;2023-05-07T06:24:27;13.70;99.90
33815;DHT22;20121;51.910;8.406;2023-05-07T06:26:52;13.70;99.90
33815;DHT22;20121;51.910;8.406;2023-05-07T06:29:18;13.70;99.90
33815;DHT22;20121;51.910;8.406;2023-05-07T06:31:44;13.80;99.90
33815;DHT22;20121;51.910;8.406;2023-05-07T06:34:10;13.70;99.90
33815;DHT22;20121;51.910;8.406;2023-05-07T06:36:40;13.80;99.90
33815;DHT22;20121;51.910;8.406;2023-05-07T06:39:05;13.80;99.90
33815;DHT22;20121;51.910;8.406;2023-05-07T06:41:31;13.80;99.90
33815;DHT22;20121;51.910;8.406;2023-05-07T06:43:56;13.80;99.90
33815;DHT22;20121;51.910;8.406;2023-05-07T06:46:22;13.80;99.90
33815;DHT22;20121;51.910;8.406;2023-05-07T06:48:48;13.90;99.90
33815;DHT22;20121;51.910;8.406;2023-05-07T06:51:13;13.90;99.90
33815;DHT22;20121;51.910;8.406;2023-05-07T06:53:39;13.90;99.90
33815;DHT22;20121;51.910;8.406;2023-05-07T06:56:05;14.00;99.90
33815;DHT22;20121;51.910;8.406;2023-05-07T06:58:30;14.10;99.90
33815;DHT22;20121;51.910;8.406;2023-05-07T07:00:56;14.20;99.90
33815;DHT22;20121;51.910;8.406;2023-05-07T07:03:21;14.30;99.90
33815;DHT22;20121;51.910;8.406;2023-05-07T07:05:47;14.40;99.90
33815;DHT22;20121;51.910;8.406;2023-05-07T07:08:13;15.00;99.90
33815;DHT22;20121;51.910;8.406;2023-05-07T07:10:38;14.60;99.90
33815;DHT22;20121;51.910;8.406;2023-05-07T07:13:04;14.70;99.90
33815;DHT22;20121;51.910;8.406;2023-05-07T07:15:29;14.80;99.90
33815;DHT22;20121;51.910;8.406;2023-05-07T07:17:55;14.80;99.90
33815;DHT22;20121;51.910;8.406;2023-05-07T07:20:21;14.80;99.90
33815;DHT22;20121;51.910;8.406;2023-05-07T07:22:46;14.80;99.90
33815;DHT22;20121;51.910;8.406;2023-05-07T07:25:12;14.80;99.90
33815;DHT22;20121;51.910;8.406;2023-05-07T07:27:37;14.80;99.90
33815;DHT22;20121;51.910;8.406;2023-05-07T07:30:05;14.90;99.90
33815;DHT22;20121;51.910;8.406;2023-05-07T07:32:31;14.90;99.90
33815;DHT22;20121;51.910;8.406;2023-05-07T07:34:58;14.90;99.90
33815;DHT22;20121;51.910;8.406;2023-05-07T07:37:24;15.00;99.90
33815;DHT22;20121;51.910;8.406;2023-05-07T07:39:51;15.00;99.90
33815;DHT22;20121;51.910;8.406;2023-05-07T07:42:16;15.00;99.90
33815;DHT22;20121;51.910;8.406;2023-05-07T07:44:42;15.00;99.90
33815;DHT22;20121;51.910;8.406;2023-05-07T07:47:07;15.10;99.90
33815;DHT22;20121;51.910;8.406;2023-05-07T07:49:33;15.10;99.90
33815;DHT22;20121;51.910;8.406;2023-05-07T07:51:58;15.10;99.90
33815;DHT22;20121;51.910;8.406;2023-05-07T07:54:24;15.00;99.90
33815;DHT22;20121;51.910;8.406;2023-05-07T07:56:51;15.10;99.90
33815;DHT22;20121;51.910;8.406;2023-05-07T07:59:17;15.10;99.90
33815;DHT22;20121;51.910;8.406;2023-05-07T08:01:44;15.10;99.90
33815;DHT22;20121;51.910;8.406;2023-05-07T08:04:10;14.80;99.90
33815;DHT22;20121;51.910;8.406;2023-05-07T08:06:36;15.20;99.90
33815;DHT22;20121;51.910;8.406;2023-05-07T08:09:02;15.20;99.90
33815;DHT22;20121;51.910;8.406;2023-05-07T08:11:28;15.20;99.90
33815;DHT22;20121;51.910;8.406;2023-05-07T08:13:54;15.30;99.90
33815;DHT22;20121;51.910;8.406;2023-05-07T08:16:20;15.40;99.90
33815;DHT22;20121;51.910;8.406;2023-05-07T08:18:46;15.40;99.90
33815;DHT22;20121;51.910;8.406;2023-05-07T08:21:11;15.50;99.90
33815;DHT22;20121;51.910;8.406;2023-05-07T08:23:37;15.60;99.90
33815;DHT22;20121;51.910;8.406;2023-05-07T08:26:03;15.70;99.90
33815;DHT22;20121;51.910;8.406;2023-05-07T08:28:28;15.80;99.90
33815;DHT22;20121;51.910;8.406;2023-05-07T08:30:54;15.90;99.90
33815;DHT22;20121;51.910;8.406;2023-05-07T08:33:21;16.00;99.90
33815;DHT22;20121;51.910;8.406;2023-05-07T08:35:47;16.10;99.90
33815;DHT22;20121;51.910;8.406;2023-05-07T08:38:13;16.30;99.90
33815;DHT22;20121;51.910;8.406;2023-05-07T08:40:39;16.40;99.90
33815;DHT22;20121;51.910;8.406;2023-05-07T08:43:06;16.50;99.90
33815;DHT22;20121;51.910;8.406;2023-05-07T08:45:33;16.60;99.90
33815;DHT22;20121;51.910;8.406;2023-05-07T08:48:02;16.60;99.90
33815;DHT22;20121;51.910;8.406;2023-05-07T08:50:28;16.60;99.90
33815;DHT22;20121;51.910;8.406;2023-05-07T08:52:54;16.70;99.90
33815;DHT22;20121;51.910;8.406;2023-05-07T08:55:22;16.70;99.90
33815;DHT22;20121;51.910;8.406;2023-05-07T08:57:48;16.80;99.90
33815;DHT22;20121;51.910;8.406;2023-05-07T09:00:14;16.90;99.90
33815;DHT22;20121;51.910;8.406;2023-05-07T09:02:40;17.00;99.90
33815;DHT22;20121;51.910;8.406;2023-05-07T09:05:06;17.10;99.90
33815;DHT22;20121;51.910;8.406;2023-05-07T09:07:32;17.30;99.90
33815;DHT22;20121;51.910;8.406;2023-05-07T09:09:57;17.30;99.90
33815;DHT22;20121;51.910;8.406;2023-05-07T09:12:23;17.40;99.90
33815;DHT22;20121;51.910;8.406;2023-05-07T09:14:49;17.60;99.90
33815;DHT22;20121;51.910;8.406;2023-05-07T09:17:16;17.80;99.90
33815;DHT22;20121;51.910;8.406;2023-05-07T09:19:42;18.00;99.90
33815;DHT22;20121;51.910;8.406;2023-05-07T09:22:08;18.10;99.90
33815;DHT22;20121;51.910;8.406;2023-05-07T09:24:34;18.30;99.90
33815;DHT22;20121;51.910;8.406;2023-05-07T09:27:05;18.40;99.90
33815;DHT22;20121;51.910;8.406;2023-05-07T09:29:31;18.60;99.90
33815;DHT22;20121;51.910;8.406;2023-05-07T09:32:05;18.80;99.90
33815;DHT22;20121;51.910;8.406;2023-05-07T09:34:31;18.90;99.90
33815;DHT22;20121;51.910;8.406;2023-05-07T09:37:00;19.00;99.90
33815;DHT22;20121;51.910;8.406;2023-05-07T09:39:26;19.00;99.90
33815;DHT22;20121;51.910;8.406;2023-05-07T09:41:51;19.00;99.90
33815;DHT22;20121;51.910;8.406;2023-05-07T09:44:20;18.40;99.90
33815;DHT22;20121;51.910;8.406;2023-05-07T09:46:53;19.00;99.90
33815;DHT22;20121;51.910;8.406;2023-05-07T09:49:23;19.00;99.90
33815;DHT22;20121;51.910;8.406;2023-05-07T09:51:51;19.10;99.90
33815;DHT22;20121;51.910;8.406;2023-05-07T09:54:17;19.40;99.90
33815;DHT22;20121;51.910;8.406;2023-05-07T09:56:44;19.20;99.90
33815;DHT22;20121;51.910;8.406;2023-05-07T09:59:13;19.30;99.90
33815;DHT22;20121;51.910;8.406;2023-05-07T10:01:41;19.40;99.90
33815;DHT22;20121;51.910;8.406;2023-05-07T10:04:07;19.40;99.90
33815;DHT22;20121;51.910;8.406;2023-05-07T10:06:36;19.40;99.90
33815;DHT22;20121;51.910;8.406;2023-05-07T10:09:03;19.40;99.90
33815;DHT22;20121;51.910;8.406;2023-05-07T10:11:34;19.40;99.90
33815;DHT22;20121;51.910;8.406;2023-05-07T10:14:01;19.40;99.90
33815;DHT22;20121;51.910;8.406;2023-05-07T10:16:31;19.50;99.90
33815;DHT22;20121;51.910;8.406;2023-05-07T10:18:58;19.70;99.90
33815;DHT22;20121;51.910;8.406;2023-05-07T10:21:26;19.60;99.90
33815;DHT22;20121;51.910;8.406;2023-05-07T10:23:59;19.60;99.90
33815;DHT22;20121;51.910;8.406;2023-05-07T10:26:27;19.50;99.90
33815;DHT22;20121;51.910;8.406;2023-05-07T10:29:01;19.40;99.90
33815;DHT22;20121;51.910;8.406;2023-05-07T10:31:59;19.30;99.90
33815;DHT22;20121;51.910;8.406;2023-05-07T10:34:36;19.40;99.90
33815;DHT22;20121;51.910;8.406;2023-05-07T10:37:03;19.30;99.90
33815;DHT22;20121;51.910;8.406;2023-05-07T10:39:29;19.30;99.90
33815;DHT22;20121;51.910;8.406;2023-05-07T10:41:55;19.30;99.90
33815;DHT22;20121;51.910;8.406;2023-05-07T10:44:28;19.70;99.90
33815;DHT22;20121;51.910;8.406;2023-05-07T10:47:10;19.50;99.90
33815;DHT22;20121;51.910;8.406;2023-05-07T10:52:20;19.70;99.90
33815;DHT22;20121;51.910;8.406;2023-05-07T10:54:46;19.80;99.90
33815;DHT22;20121;51.910;8.406;2023-05-07T10:59:56;20.10;99.90
33815;DHT22;20121;51.910;8.406;2023-05-07T11:02:22;20.20;99.90
33815;DHT22;20121;51.910;8.406;2023-05-07T11:05:23;20.40;99.90
33815;DHT22;20121;51.910;8.406;2023-05-07T11:07:55;20.50;99.90
33815;DHT22;20121;51.910;8.406;2023-05-07T11:10:21;20.60;99.90
33815;DHT22;20121;51.910;8.406;2023-05-07T11:12:51;20.60;99.90
33815;DHT22;20121;51.910;8.406;2023-05-07T11:15:35;20.70;99.90
33815;DHT22;20121;51.910;8.406;2023-05-07T11:18:01;20.60;99.90
33815;DHT22;20121;51.910;8.406;2023-05-07T11:20:46;20.50;99.90
33815;DHT22;20121;51.910;8.406;2023-05-07T11:26:07;20.50;99.90
33815;DHT22;20121;51.910;8.406;2023-05-07T11:28:38;20.60;99.90
33815;DHT22;20121;51.910;8.406;2023-05-07T11:31:04;20.70;99.90
33815;DHT22;20121;51.910;8.406;2023-05-07T11:33:33;20.80;99.90
33815;DHT22;20121;51.910;8.406;2023-05-07T11:36:00;20.90;99.80
33815;DHT22;20121;51.910;8.406;2023-05-07T11:38:38;21.30;99.90
33815;DHT22;20121;51.910;8.406;2023-05-07T11:41:04;21.00;99.90
33815;DHT22;20121;51.910;8.406;2023-05-07T11:43:31;21.10;99.30
33815;DHT22;20121;51.910;8.406;2023-05-07T11:46:07;21.10;99.60
33815;DHT22;20121;51.910;8.406;2023-05-07T11:48:33;21.20;99.50
33815;DHT22;20121;51.910;8.406;2023-05-07T11:53:25;21.50;99.90
33815;DHT22;20121;51.910;8.406;2023-05-07T11:55:57;21.70;99.00
33815;DHT22;20121;51.910;8.406;2023-05-07T11:58:24;21.70;98.50
33815;DHT22;20121;51.910;8.406;2023-05-07T12:00:54;21.70;98.20
33815;DHT22;20121;51.910;8.406;2023-05-07T12:03:23;21.60;98.60
33815;DHT22;20121;51.910;8.406;2023-05-07T12:05:49;21.50;98.80
33815;DHT22;20121;51.910;8.406;2023-05-07T12:08:18;21.40;98.70
33815;DHT22;20121;51.910;8.406;2023-05-07T12:10:45;21.40;98.90
33815;DHT22;20121;51.910;8.406;2023-05-07T12:13:20;21.30;98.60
33815;DHT22;20121;51.910;8.406;2023-05-07T12:15:46;21.20;98.70
33815;DHT22;20121;51.910;8.406;2023-05-07T12:18:15;21.10;98.90
33815;DHT22;20121;51.910;8.406;2023-05-07T12:20:41;21.10;99.10
33815;DHT22;20121;51.910;8.406;2023-05-07T12:23:07;21.10;99.30
33815;DHT22;20121;51.910;8.406;2023-05-07T12:25:37;21.30;99.30
33815;DHT22;20121;51.910;8.406;2023-05-07T12:28:03;21.50;98.90
33815;DHT22;20121;51.910;8.406;2023-05-07T12:30:39;21.60;99.00
33815;DHT22;20121;51.910;8.406;2023-05-07T12:33:05;21.70;99.10
33815;DHT22;20121;51.910;8.406;2023-05-07T12:35:38;21.80;98.80
33815;DHT22;20121;51.910;8.406;2023-05-07T12:38:08;21.80;98.20
33815;DHT22;20121;51.910;8.406;2023-05-07T12:40:42;21.70;98.10
33815;DHT22;20121;51.910;8.406;2023-05-07T12:43:15;21.50;98.00
33815;DHT22;20121;51.910;8.406;2023-05-07T12:45:44;21.40;98.10
33815;DHT22;20121;51.910;8.406;2023-05-07T12:48:10;21.30;98.70
33815;DHT22;20121;51.910;8.406;2023-05-07T12:50:36;21.50;98.70
33815;DHT22;20121;51.910;8.406;2023-05-07T12:53:06;21.60;98.40
33815;DHT22;20121;51.910;8.406;2023-05-07T12:55:43;21.60;98.50
33815;DHT22;20121;51.910;8.406;2023-05-07T12:58:18;21.60;98.50
33815;DHT22;20121;51.910;8.406;2023-05-07T13:00:45;21.80;98.50
33815;DHT22;20121;51.910;8.406;2023-05-07T13:03:24;21.70;97.90
33815;DHT22;20121;51.910;8.406;2023-05-07T13:05:51;21.60;98.30
33815;DHT22;20121;51.910;8.406;2023-05-07T13:08:28;21.60;98.10
33815;DHT22;20121;51.910;8.406;2023-05-07T13:10:55;21.60;98.40
33815;DHT22;20121;51.910;8.406;2023-05-07T13:13:20;21.60;98.40
33815;DHT22;20121;51.910;8.406;2023-05-07T13:15:47;21.60;98.40
33815;DHT22;20121;51.910;8.406;2023-05-07T13:18:13;21.70;98.00
33815;DHT22;20121;51.910;8.406;2023-05-07T13:20:39;21.70;98.30
33815;DHT22;20121;51.910;8.406;2023-05-07T13:23:04;21.80;97.90
33815;DHT22;20121;51.910;8.406;2023-05-07T13:25:30;21.80;97.90
33815;DHT22;20121;51.910;8.406;2023-05-07T13:27:59;21.90;98.40
33815;DHT22;20121;51.910;8.406;2023-05-07T13:30:25;22.00;97.80
33815;DHT22;20121;51.910;8.406;2023-05-07T13:32:53;22.00;97.80
33815;DHT22;20121;51.910;8.406;2023-05-07T13:35:19;22.00;97.80
33815;DHT22;20121;51.910;8.406;2023-05-07T13:37:44;22.00;98.20
33815;DHT22;20121;51.910;8.406;2023-05-07T13:40:11;21.90;97.70
33815;DHT22;20121;51.910;8.406;2023-05-07T13:42:36;21.80;98.20
33815;DHT22;20121;51.910;8.406;2023-05-07T13:45:02;21.70;97.90
33815;DHT22;20121;51.910;8.406;2023-05-07T13:47:29;21.60;97.90
33815;DHT22;20121;51.910;8.406;2023-05-07T13:49:54;21.50;97.90
33815;DHT22;20121;51.910;8.406;2023-05-07T13:52:20;21.50;98.10
33815;DHT22;20121;51.910;8.406;2023-05-07T13:54:46;21.40;98.10
33815;DHT22;20121;51.910;8.406;2023-05-07T13:57:11;21.30;98.00
33815;DHT22;20121;51.910;8.406;2023-05-07T13:59:37;21.30;97.60
33815;DHT22;20121;51.910;8.406;2023-05-07T14:02:03;21.30;98.30
33815;DHT22;20121;51.910;8.406;2023-05-07T14:04:29;21.20;98.40
33815;DHT22;20121;51.910;8.406;2023-05-07T14:06:55;21.20;98.60
33815;DHT22;20121;51.910;8.406;2023-05-07T14:09:21;21.20;98.90
33815;DHT22;20121;51.910;8.406;2023-05-07T14:11:46;21.10;98.30
33815;DHT22;20121;51.910;8.406;2023-05-07T14:14:17;21.10;99.90
33815;DHT22;20121;51.910;8.406;2023-05-07T14:16:42;21.00;98.60
33815;DHT22;20121;51.910;8.406;2023-05-07T14:19:08;21.00;98.90
33815;DHT22;20121;51.910;8.406;2023-05-07T14:21:33;21.10;98.90
33815;DHT22;20121;51.910;8.406;2023-05-07T14:23:59;21.00;98.60
33815;DHT22;20121;51.910;8.406;2023-05-07T14:26:25;21.00;98.70
33815;DHT22;20121;51.910;8.406;2023-05-07T14:28:52;21.10;98.90
33815;DHT22;20121;51.910;8.406;2023-05-07T14:31:20;21.00;98.60
33815;DHT22;20121;51.910;8.406;2023-05-07T14:33:46;21.00;98.60
33815;DHT22;20121;51.910;8.406;2023-05-07T14:36:12;20.80;98.80
33815;DHT22;20121;51.910;8.406;2023-05-07T14:38:37;20.80;98.90
33815;DHT22;20121;51.910;8.406;2023-05-07T14:41:03;20.70;99.20
33815;DHT22;20121;51.910;8.406;2023-05-07T14:43:29;20.50;99.50
33815;DHT22;20121;51.910;8.406;2023-05-07T14:45:55;20.50;99.60
33815;DHT22;20121;51.910;8.406;2023-05-07T14:48:20;20.50;99.20
33815;DHT22;20121;51.910;8.406;2023-05-07T14:50:49;20.40;99.00
33815;DHT22;20121;51.910;8.406;2023-05-07T14:53:15;20.30;99.60
33815;DHT22;20121;51.910;8.406;2023-05-07T14:55:41;20.30;99.80
33815;DHT22;20121;51.910;8.406;2023-05-07T14:58:07;20.30;99.90
33815;DHT22;20121;51.910;8.406;2023-05-07T15:00:33;20.20;99.90
33815;DHT22;20121;51.910;8.406;2023-05-07T15:03:05;20.20;99.90
33815;DHT22;20121;51.910;8.406;2023-05-07T15:05:32;20.10;99.80
33815;DHT22;20121;51.910;8.406;2023-05-07T15:07:58;20.10;99.70
33815;DHT22;20121;51.910;8.406;2023-05-07T15:10:24;20.10;99.90
33815;DHT22;20121;51.910;8.406;2023-05-07T15:12:49;20.10;99.90
33815;DHT22;20121;51.910;8.406;2023-05-07T15:15:15;20.00;99.90
33815;DHT22;20121;51.910;8.406;2023-05-07T15:17:41;20.00;99.90
33815;DHT22;20121;51.910;8.406;2023-05-07T15:20:07;20.00;99.90
33815;DHT22;20121;51.910;8.406;2023-05-07T15:22:33;20.00;99.90
33815;DHT22;20121;51.910;8.406;2023-05-07T15:24:59;20.00;99.90
33815;DHT22;20121;51.910;8.406;2023-05-07T15:27:25;20.00;99.90
33815;DHT22;20121;51.910;8.406;2023-05-07T15:29:51;19.90;99.90
33815;DHT22;20121;51.910;8.406;2023-05-07T15:32:17;19.90;99.90
33815;DHT22;20121;51.910;8.406;2023-05-07T15:34:43;19.90;99.90
33815;DHT22;20121;51.910;8.406;2023-05-07T15:37:08;19.90;99.90
33815;DHT22;20121;51.910;8.406;2023-05-07T15:39:34;19.90;99.90